createdAt,value
2022-11-03T00:02:21.474Z,15.10
2022-11-03T00:05:36.457Z,8.63
2022-11-03T00:08:42.017Z,8.57
2022-11-03T00:11:58.366Z,10.95
2022-11-03T00:15:00.105Z,11.82
2022-11-03T00:18:14.381Z,13.50
2022-11-03T00:21:16.177Z,9.52
2022-11-03T00:24:31.372Z,8.80
2022-11-03T00:27:46.370Z,9.35
2022-11-03T00:31:01.387Z,9.85
2022-11-03T00:34:11.380Z,12.05
2022-11-03T00:37:26.425Z,13.20
2022-11-03T00:40:28.182Z,10.53
2022-11-03T00:43:43.457Z,11.85
2022-11-03T00:46:58.692Z,9.43
2022-11-03T00:50:07.434Z,11.30
2022-11-03T00:53:15.990Z,11.32
2022-11-03T00:56:26.418Z,9.33
2022-11-03T00:59:41.395Z,10.68
2022-11-03T01:02:43.157Z,12.45
2022-11-03T01:05:57.444Z,16.00
2022-11-03T01:09:05.417Z,11.65
2022-11-03T01:12:17.280Z,13.77
2022-11-03T01:15:25.430Z,13.52
2022-11-03T01:18:40.430Z,9.10
2022-11-03T01:21:55.437Z,10.43
2022-11-03T01:25:04.160Z,13.02
2022-11-03T01:28:12.446Z,13.63
2022-11-03T01:31:30.463Z,12.07
2022-11-03T01:34:32.350Z,10.35
2022-11-03T01:37:47.499Z,10.90
2022-11-03T01:40:49.225Z,12.20
2022-11-03T01:44:31.481Z,10.53
2022-11-03T01:47:47.181Z,11.73
2022-11-03T01:51:02.429Z,11.55
2022-11-03T01:54:08.798Z,8.18
2022-11-03T01:57:31.447Z,9.02
2022-11-03T02:00:34.940Z,10.40
2022-11-03T02:03:57.447Z,6.93
2022-11-03T02:07:22.865Z,6.47
2022-11-03T02:10:31.489Z,7.95
2022-11-03T02:13:46.459Z,10.75
2022-11-03T02:17:05.484Z,6.47
2022-11-03T02:20:27.524Z,7.30
2022-11-03T02:23:51.457Z,7.00
2022-11-03T02:27:00.306Z,8.05
2022-11-03T02:30:08.436Z,7.85
2022-11-03T02:33:31.171Z,8.43
2022-11-03T02:36:47.466Z,5.80
2022-11-03T02:40:10.453Z,9.65
2022-11-03T02:43:15.088Z,7.78
2022-11-03T02:46:32.483Z,8.13
2022-11-03T02:49:46.846Z,10.27
2022-11-03T02:53:01.497Z,11.50
2022-11-03T02:56:11.034Z,8.70
2022-11-03T02:59:33.479Z,8.13
2022-11-03T03:02:44.837Z,8.07
2022-11-03T03:06:06.457Z,8.37
2022-11-03T03:09:18.516Z,10.13
2022-11-03T03:12:34.553Z,6.45
2022-11-03T03:15:57.486Z,10.10
2022-11-03T03:19:13.347Z,9.63
2022-11-03T03:22:38.506Z,10.57
2022-11-03T03:25:58.658Z,8.15
2022-11-03T03:29:15.477Z,11.70
2022-11-03T03:32:26.866Z,11.98
2022-11-03T03:35:37.499Z,11.02
2022-11-03T03:39:00.517Z,10.77
2022-11-03T03:42:03.827Z,10.48
2022-11-03T03:45:19.567Z,12.43
2022-11-03T03:48:27.921Z,11.70
2022-11-03T03:51:44.520Z,11.30
2022-11-03T03:54:46.254Z,14.13
2022-11-03T03:58:00.674Z,12.90
2022-11-03T04:01:18.593Z,10.07
2022-11-03T04:04:20.758Z,13.77
2022-11-03T04:07:40.741Z,11.05
2022-11-03T04:10:52.497Z,9.90
2022-11-03T04:14:01.053Z,11.18
2022-11-03T04:17:09.572Z,14.27
2022-11-03T04:20:18.393Z,9.77
2022-11-03T04:23:33.523Z,10.95
2022-11-03T04:26:42.122Z,13.07
2022-11-03T04:29:50.524Z,13.52
2022-11-03T04:33:05.536Z,10.70
2022-11-03T04:36:23.060Z,11.43
2022-11-03T04:39:37.601Z,10.38
2022-11-03T04:42:46.492Z,10.80
2022-11-03T04:46:01.661Z,10.70
2022-11-03T04:49:22.202Z,15.10
2022-11-03T04:52:30.529Z,9.60
2022-11-03T04:55:47.524Z,12.00
2022-11-03T04:58:49.331Z,11.10
2022-11-03T05:02:05.681Z,10.18
2022-11-03T05:05:19.675Z,12.70
2022-11-03T05:08:34.586Z,13.27
2022-11-03T05:11:42.311Z,25.95
2022-11-03T05:14:58.812Z,37.27
2022-11-03T05:18:04.087Z,11.10
2022-11-03T05:21:24.565Z,11.85
2022-11-03T05:24:33.573Z,9.30
2022-11-03T05:27:42.081Z,11.55
2022-11-03T05:30:50.552Z,13.23
2022-11-03T05:34:10.541Z,11.45
2022-11-03T05:37:33.559Z,11.80
2022-11-03T05:40:43.059Z,12.73
2022-11-03T05:43:51.553Z,17.55
2022-11-03T05:47:08.554Z,10.97
2022-11-03T05:50:27.626Z,10.85
2022-11-03T05:53:39.502Z,11.23
2022-11-03T05:56:47.561Z,13.75
2022-11-03T06:00:02.534Z,11.52
2022-11-03T06:03:06.377Z,13.07
2022-11-03T06:06:32.388Z,12.60
2022-11-03T06:09:34.599Z,11.40
2022-11-03T06:12:49.535Z,11.85
2022-11-03T06:16:03.531Z,13.57
2022-11-03T06:19:34.575Z,10.27
2022-11-03T06:22:43.305Z,13.35
2022-11-03T06:26:00.549Z,11.25
2022-11-03T06:29:22.577Z,16.48
2022-11-03T06:32:24.838Z,17.23
2022-11-03T06:35:41.550Z,20.00
2022-11-03T06:38:57.626Z,11.27
2022-11-03T06:42:14.753Z,13.27
2022-11-03T06:45:28.603Z,15.38
2022-11-03T06:48:50.569Z,12.25
2022-11-03T06:51:52.336Z,13.27
2022-11-03T06:55:22.734Z,9.90
2022-11-03T06:58:30.734Z,17.62
2022-11-03T07:01:45.715Z,21.65
2022-11-03T07:08:41.617Z,16.93
2022-11-03T07:11:54.932Z,15.57
2022-11-03T07:18:32.613Z,15.60
2022-11-03T07:21:46.380Z,17.37
2022-11-03T07:24:58.650Z,20.47
2022-11-03T07:28:16.616Z,16.77
2022-11-03T07:31:28.679Z,22.10
2022-11-03T07:34:37.314Z,21.05
2022-11-03T07:37:53.623Z,24.23
2022-11-03T07:41:10.627Z,19.90
2022-11-03T07:44:18.261Z,23.73
2022-11-03T07:47:34.620Z,26.08
2022-11-03T07:50:59.642Z,21.45
2022-11-03T07:54:22.649Z,22.15
2022-11-03T07:57:40.846Z,24.30
2022-11-03T08:00:49.667Z,22.48
2022-11-03T08:04:10.631Z,24.65
2022-11-03T08:07:18.606Z,24.30
2022-11-03T08:10:33.630Z,22.50
2022-11-03T08:13:42.154Z,29.03
2022-11-03T08:16:56.630Z,28.98
2022-11-03T08:20:04.657Z,34.92
2022-11-03T08:23:25.776Z,28.02
2022-11-03T08:26:35.718Z,29.40
2022-11-03T08:29:44.627Z,29.53
2022-11-03T08:32:52.676Z,31.55
2022-11-03T08:36:02.598Z,33.28
2022-11-03T08:39:17.642Z,33.88
2022-11-03T08:42:19.461Z,28.15
2022-11-03T08:45:35.691Z,32.57
2022-11-03T08:48:50.621Z,28.90
2022-11-03T08:51:59.246Z,33.60
2022-11-03T08:55:07.650Z,29.63
2022-11-03T08:58:16.525Z,32.63
2022-11-03T09:01:25.764Z,31.67
2022-11-03T09:04:34.294Z,34.72
2022-11-03T09:11:11.335Z,30.65
2022-11-03T09:14:19.686Z,35.08
2022-11-03T09:17:34.714Z,37.70
2022-11-03T09:20:49.652Z,35.08
2022-11-03T09:23:57.759Z,28.67
2022-11-03T09:27:12.696Z,33.88
2022-11-03T09:30:20.747Z,34.20
2022-11-03T09:33:35.725Z,34.00
2022-11-03T09:36:43.642Z,46.67
2022-11-03T09:39:52.302Z,32.75
2022-11-03T09:43:00.671Z,37.63
2022-11-03T09:46:10.063Z,30.58
2022-11-03T09:49:21.687Z,35.63
2022-11-03T09:52:38.770Z,37.10
2022-11-03T09:55:40.574Z,32.60
2022-11-03T09:58:55.750Z,36.55
2022-11-03T10:02:03.852Z,40.33
2022-11-03T10:05:22.855Z,48.23
2022-11-03T10:08:34.774Z,37.95
2022-11-03T10:11:52.766Z,36.45
2022-11-03T10:15:01.457Z,46.60
2022-11-03T10:18:10.783Z,45.92
2022-11-03T10:21:31.758Z,40.03
2022-11-03T10:24:39.738Z,35.38
2022-11-03T10:27:48.453Z,35.47
2022-11-03T10:31:16.009Z,40.63
2022-11-03T10:34:34.893Z,33.22
2022-11-03T10:37:43.852Z,32.83
2022-11-03T10:40:52.303Z,35.50
2022-11-03T10:44:24.692Z,38.22
2022-11-03T10:47:46.763Z,32.67
2022-11-03T10:50:55.459Z,37.08
2022-11-03T10:54:03.736Z,31.80
2022-11-03T10:57:12.667Z,31.33
2022-11-03T11:00:23.764Z,37.63
2022-11-03T11:03:39.771Z,30.98
2022-11-03T11:06:49.298Z,38.60
2022-11-03T11:09:57.737Z,37.10
2022-11-03T11:13:26.817Z,32.22
2022-11-03T11:16:54.756Z,34.63
2022-11-03T11:20:33.307Z,36.10
2022-11-03T11:23:53.030Z,37.88
2022-11-03T11:27:07.758Z,40.20
2022-11-03T11:30:46.842Z,62.50
2022-11-03T11:34:31.759Z,49.38
2022-11-03T11:37:42.742Z,41.45
2022-11-03T11:40:51.379Z,41.08
2022-11-03T11:43:59.733Z,33.97
2022-11-03T11:47:34.807Z,34.53
2022-11-03T11:50:43.867Z,38.95
2022-11-03T11:54:17.124Z,35.42
2022-11-03T11:57:22.865Z,37.78
2022-11-03T12:00:44.073Z,35.40
2022-11-03T12:03:54.891Z,40.05
2022-11-03T12:07:19.848Z,40.50
2022-11-03T12:10:30.761Z,44.33
2022-11-03T12:13:57.783Z,47.00
2022-11-03T12:17:33.031Z,44.20
2022-11-03T12:20:54.793Z,43.25
2022-11-03T12:23:57.073Z,39.72
2022-11-03T12:27:26.745Z,43.78
2022-11-03T12:30:39.817Z,41.15
2022-11-03T12:33:54.874Z,54.07
2022-11-03T12:37:04.752Z,49.60
2022-11-03T12:40:20.840Z,53.17
2022-11-03T12:43:29.469Z,46.22
2022-11-03T12:46:37.830Z,48.30
2022-11-03T12:49:59.794Z,49.70
2022-11-03T12:53:08.239Z,40.58
2022-11-03T12:56:18.360Z,47.35
2022-11-03T12:59:32.789Z,54.42
2022-11-03T13:02:41.559Z,52.85
2022-11-03T13:05:49.847Z,41.40
2022-11-03T13:08:58.392Z,49.53
2022-11-03T13:12:06.780Z,46.10
2022-11-03T13:15:22.840Z,49.80
2022-11-03T13:18:34.787Z,48.22
2022-11-03T13:21:49.843Z,61.80
2022-11-03T13:24:55.835Z,52.80
2022-11-03T13:28:11.837Z,48.67
2022-11-03T13:31:13.670Z,47.08
2022-11-03T13:34:31.766Z,45.78
2022-11-03T13:37:33.538Z,37.03
2022-11-03T13:40:57.089Z,36.05
2022-11-03T13:43:59.759Z,39.80
2022-11-03T13:47:15.060Z,32.95
2022-11-03T13:50:24.281Z,38.38
2022-11-03T14:00:36.758Z,36.05
2022-11-03T14:07:19.853Z,32.58
2022-11-03T14:10:28.851Z,34.17
2022-11-03T14:13:44.094Z,33.40
2022-11-03T14:16:46.026Z,32.83
2022-11-03T14:20:04.572Z,30.55
2022-11-03T14:23:07.272Z,34.50
2022-11-03T14:26:38.656Z,29.13
2022-11-03T14:29:44.541Z,42.60
2022-11-03T14:32:59.790Z,30.55
2022-11-03T14:36:08.733Z,33.58
2022-11-03T14:39:17.854Z,29.90
2022-11-03T14:42:26.796Z,45.47
2022-11-03T14:45:42.956Z,33.30
2022-11-03T14:48:59.125Z,44.63
2022-11-03T14:52:14.873Z,34.97
2022-11-03T14:55:24.197Z,31.33
2022-11-03T14:58:38.923Z,36.30
2022-11-03T15:01:49.019Z,37.42
2022-11-03T15:05:03.890Z,40.25
2022-11-03T15:08:06.071Z,41.37
2022-11-03T15:11:20.885Z,37.85
2022-11-03T15:14:28.877Z,34.90
2022-11-03T15:17:43.924Z,37.53
2022-11-03T15:20:45.988Z,32.92
2022-11-03T15:27:22.767Z,31.58
2022-11-03T15:30:38.864Z,34.27
2022-11-03T15:33:46.869Z,35.45
2022-11-03T15:36:55.483Z,34.75
2022-11-03T15:40:03.999Z,31.52
2022-11-03T15:43:12.510Z,27.52
2022-11-03T15:46:22.897Z,31.67
2022-11-03T15:49:38.218Z,33.05
2022-11-03T15:52:46.882Z,29.50
2022-11-03T15:56:01.918Z,36.35
2022-11-03T15:59:09.929Z,32.47
2022-11-03T16:02:40.992Z,30.80
2022-11-03T16:05:50.656Z,33.00
2022-11-03T16:08:58.983Z,33.95
2022-11-03T16:12:07.996Z,31.62
2022-11-03T16:15:22.912Z,29.77
2022-11-03T16:18:25.249Z,35.07
2022-11-03T16:21:39.992Z,38.13
2022-11-03T16:24:42.434Z,37.83
2022-11-03T16:27:57.999Z,43.05
2022-11-03T16:31:06.925Z,37.30
2022-11-03T16:34:22.982Z,38.07
2022-11-03T16:37:32.104Z,39.67
2022-11-03T16:40:42.370Z,40.10
2022-11-03T16:43:50.844Z,39.58
2022-11-03T16:47:13.901Z,39.30
2022-11-03T16:50:28.927Z,48.38
2022-11-03T16:53:37.597Z,47.20
2022-11-03T16:56:49.414Z,43.03
2022-11-03T17:00:00.766Z,45.22
2022-11-03T17:03:09.264Z,40.63
2022-11-03T17:06:24.929Z,45.58
2022-11-03T17:09:33.909Z,41.53
2022-11-03T17:12:48.937Z,45.63
2022-11-03T17:15:52.903Z,38.58
2022-11-03T17:19:07.910Z,46.72
2022-11-03T17:22:10.059Z,42.67
2022-11-03T17:25:24.875Z,43.97
2022-11-03T17:28:32.908Z,41.27
2022-11-03T17:31:47.894Z,45.53
2022-11-03T17:34:53.706Z,52.20
2022-11-03T17:38:12.989Z,45.65
2022-11-03T17:41:21.945Z,50.53
2022-11-03T17:44:31.753Z,50.53
2022-11-03T17:47:39.929Z,47.35
2022-11-03T17:50:56.399Z,46.90
2022-11-03T17:54:12.889Z,48.38
2022-11-03T17:57:23.115Z,55.40
2022-11-03T18:00:32.985Z,51.70
2022-11-03T18:03:50.962Z,49.05
2022-11-03T18:06:53.377Z,44.42
2022-11-03T18:10:07.921Z,48.10
2022-11-03T18:13:23.937Z,47.37
2022-11-03T18:16:38.954Z,51.37
2022-11-03T18:19:47.922Z,52.67
2022-11-03T18:23:17.953Z,52.80
2022-11-03T18:26:28.980Z,47.03
2022-11-03T18:29:37.786Z,45.87
2022-11-03T18:32:53.951Z,42.80
2022-11-03T18:36:03.979Z,51.05
2022-11-03T18:39:27.956Z,47.13
2022-11-03T18:42:37.146Z,50.25
2022-11-03T18:45:45.957Z,46.63
2022-11-03T18:49:01.995Z,52.13
2022-11-03T18:52:14.087Z,46.20
2022-11-03T18:55:29.062Z,44.28
2022-11-03T18:58:33.517Z,48.22
2022-11-03T19:01:48.083Z,49.90
2022-11-03T19:05:02.989Z,47.27
2022-11-03T19:08:05.798Z,48.08
2022-11-03T19:11:27.691Z,48.05
2022-11-03T19:14:33.007Z,50.25
2022-11-03T19:17:47.970Z,47.73
2022-11-03T19:20:56.978Z,52.37
2022-11-03T19:24:06.117Z,47.35
2022-11-03T19:27:27.004Z,47.35
2022-11-03T19:30:29.347Z,48.87
2022-11-03T19:33:45.943Z,47.93
2022-11-03T19:36:50.935Z,50.50
2022-11-03T19:40:06.954Z,50.00
2022-11-03T19:43:16.039Z,40.60
2022-11-03T19:46:32.016Z,49.72
2022-11-03T19:49:53.947Z,46.07
2022-11-03T19:53:12.968Z,47.70
2022-11-03T19:56:27.961Z,45.55
2022-11-03T19:59:30.041Z,51.92
2022-11-03T20:02:45.174Z,48.20
2022-11-03T20:05:50.488Z,52.00
2022-11-03T20:09:04.979Z,42.83
2022-11-03T20:12:13.938Z,47.35
2022-11-03T20:15:22.906Z,51.45
2022-11-03T20:18:31.967Z,51.25
2022-11-03T20:21:41.401Z,55.73
2022-11-03T20:24:53.974Z,48.50
2022-11-03T20:28:22.067Z,49.85
2022-11-03T20:31:37.005Z,44.20
2022-11-03T20:34:46.094Z,45.20
2022-11-03T20:37:57.204Z,47.50
2022-11-03T20:41:12.854Z,40.23
2022-11-03T20:44:29.124Z,47.22
2022-11-03T20:47:48.181Z,35.03
2022-11-03T20:50:57.266Z,48.70
2022-11-03T20:54:22.016Z,46.10
2022-11-03T20:57:30.846Z,42.20
2022-11-03T21:00:46.137Z,40.47
2022-11-03T21:04:01.017Z,42.83
2022-11-03T21:07:10.053Z,42.15
2022-11-03T21:10:26.009Z,33.93
2022-11-03T21:13:35.994Z,36.70
2022-11-03T21:16:51.023Z,35.40
2022-11-03T21:19:53.037Z,39.63
2022-11-03T21:23:08.300Z,36.40
2022-11-03T21:26:16.679Z,31.67
2022-11-03T21:29:53.495Z,35.17
2022-11-03T21:32:53.626Z,37.95
2022-11-03T21:36:02.032Z,36.67
2022-11-03T21:39:17.057Z,35.40
2022-11-03T21:42:25.562Z,38.07
2022-11-03T21:45:34.027Z,33.07
2022-11-03T21:48:49.013Z,36.72
2022-11-03T21:52:11.022Z,35.05
2022-11-03T21:55:26.052Z,36.28
2022-11-03T21:58:27.833Z,34.63
2022-11-03T22:01:43.276Z,38.73
2022-11-03T22:04:58.061Z,36.22
2022-11-03T22:07:59.768Z,33.53
2022-11-03T22:11:15.069Z,40.72
2022-11-03T22:14:23.034Z,35.77
2022-11-03T22:17:31.617Z,37.00
2022-11-03T22:20:40.070Z,33.60
2022-11-03T22:23:48.589Z,35.58
2022-11-03T22:26:57.047Z,35.72
2022-11-03T22:30:06.603Z,30.73
2022-11-03T22:33:15.017Z,34.63
2022-11-03T22:36:23.708Z,37.35
2022-11-03T22:39:32.057Z,34.53
2022-11-03T22:42:41.010Z,28.98
2022-11-03T22:45:49.057Z,33.50
2022-11-03T22:49:04.046Z,33.80
2022-11-03T22:52:12.065Z,32.50
2022-11-03T22:55:20.567Z,30.60
2022-11-03T22:58:30.573Z,30.00
2022-11-03T23:01:39.876Z,31.77
2022-11-03T23:04:48.052Z,31.33
2022-11-03T23:07:56.650Z,30.08
2022-11-03T23:11:18.145Z,30.73
2022-11-03T23:14:33.054Z,31.27
2022-11-03T23:17:41.053Z,31.20
2022-11-03T23:20:49.615Z,27.83
2022-11-03T23:23:58.110Z,33.83
2022-11-03T23:27:07.453Z,28.92
2022-11-03T23:30:16.052Z,27.90
2022-11-03T23:33:31.097Z,27.43
2022-11-03T23:36:33.119Z,28.90
2022-11-03T23:39:48.091Z,30.95
2022-11-03T23:42:49.829Z,30.98
2022-11-03T23:46:04.104Z,31.45
2022-11-03T23:49:06.382Z,28.70
2022-11-03T23:52:28.115Z,30.03
2022-11-03T23:55:36.090Z,24.20
2022-11-03T23:58:48.571Z,26.95
